sensor_id;sensor_type;location;lat;lon;timestamp;temperature;humidity
38606;DHT22;24365;48.446;8.850;2023-11-19T00:01:20;7.30;93.90
38606;DHT22;24365;48.446;8.850;2023-11-19T00:06:20;7.40;94.20
38606;DHT22;24365;48.446;8.850;2023-11-19T00:11:21;7.40;94.10
38606;DHT22;24365;48.446;8.850;2023-11-19T00:16:22;7.40;94.40
38606;DHT22;24365;48.446;8.850;2023-11-19T00:21:23;7.50;94.70
38606;DHT22;24365;48.446;8.850;2023-11-19T00:26:24;7.50;94.60
38606;DHT22;24365;48.446;8.850;2023-11-19T00:31:27;7.40;94.90
38606;DHT22;24365;48.446;8.850;2023-11-19T00:36:28;7.40;95.20
38606;DHT22;24365;48.446;8.850;2023-11-19T00:41:29;7.50;95.50
38606;DHT22;24365;48.446;8.850;2023-11-19T00:46:30;7.40;95.30
38606;DHT22;24365;48.446;8.850;2023-11-19T00:51:31;7.40;95.50
38606;DHT22;24365;48.446;8.850;2023-11-19T00:56:32;7.40;95.50
38606;DHT22;24365;48.446;8.850;2023-11-19T01:01:33;7.50;95.60
38606;DHT22;24365;48.446;8.850;2023-11-19T01:06:34;7.50;95.50
38606;DHT22;24365;48.446;8.850;2023-11-19T01:11:35;7.60;95.50
38606;DHT22;24365;48.446;8.850;2023-11-19T01:16:37;7.60;95.50
38606;DHT22;24365;48.446;8.850;2023-11-19T01:21:38;7.60;95.60
38606;DHT22;24365;48.446;8.850;2023-11-19T01:26:38;7.60;95.60
38606;DHT22;24365;48.446;8.850;2023-11-19T01:31:40;7.60;95.80
38606;DHT22;24365;48.446;8.850;2023-11-19T01:36:41;7.60;95.80
38606;DHT22;24365;48.446;8.850;2023-11-19T01:41:42;7.60;95.70
38606;DHT22;24365;48.446;8.850;2023-11-19T01:46:44;7.60;95.80
38606;DHT22;24365;48.446;8.850;2023-11-19T01:51:47;7.60;95.80
38606;DHT22;24365;48.446;8.850;2023-11-19T01:56:49;7.70;96.00
38606;DHT22;24365;48.446;8.850;2023-11-19T02:01:50;7.70;96.00
38606;DHT22;24365;48.446;8.850;2023-11-19T02:06:52;7.80;96.10
38606;DHT22;24365;48.446;8.850;2023-11-19T02:11:54;7.90;96.30
38606;DHT22;24365;48.446;8.850;2023-11-19T02:16:56;7.80;96.10
38606;DHT22;24365;48.446;8.850;2023-11-19T02:21:56;7.80;96.10
38606;DHT22;24365;48.446;8.850;2023-11-19T02:26:59;7.90;96.20
38606;DHT22;24365;48.446;8.850;2023-11-19T02:32:02;7.90;96.30
38606;DHT22;24365;48.446;8.850;2023-11-19T02:37:04;7.90;96.30
38606;DHT22;24365;48.446;8.850;2023-11-19T02:42:06;7.90;96.30
38606;DHT22;24365;48.446;8.850;2023-11-19T02:47:07;7.90;96.30
38606;DHT22;24365;48.446;8.850;2023-11-19T02:52:08;8.00;96.30
38606;DHT22;24365;48.446;8.850;2023-11-19T02:57:11;8.00;96.40
38606;DHT22;24365;48.446;8.850;2023-11-19T03:02:13;8.10;96.50
38606;DHT22;24365;48.446;8.850;2023-11-19T03:07:16;8.10;96.50
38606;DHT22;24365;48.446;8.850;2023-11-19T03:12:18;8.20;96.50
38606;DHT22;24365;48.446;8.850;2023-11-19T03:17:19;8.30;96.60
38606;DHT22;24365;48.446;8.850;2023-11-19T03:22:20;8.50;96.70
38606;DHT22;24365;48.446;8.850;2023-11-19T03:27:21;8.60;96.70
38606;DHT22;24365;48.446;8.850;2023-11-19T03:32:22;8.70;96.80
38606;DHT22;24365;48.446;8.850;2023-11-19T03:37:23;8.90;96.90
38606;DHT22;24365;48.446;8.850;2023-11-19T03:42:24;9.00;96.80
38606;DHT22;24365;48.446;8.850;2023-11-19T03:47:25;9.20;96.80
38606;DHT22;24365;48.446;8.850;2023-11-19T03:52:26;9.30;96.90
38606;DHT22;24365;48.446;8.850;2023-11-19T03:57:30;9.40;97.40
38606;DHT22;24365;48.446;8.850;2023-11-19T04:02:31;9.50;96.60
38606;DHT22;24365;48.446;8.850;2023-11-19T04:07:32;9.60;96.40
38606;DHT22;24365;48.446;8.850;2023-11-19T04:12:33;9.60;96.30
38606;DHT22;24365;48.446;8.850;2023-11-19T04:17:34;9.70;96.40
38606;DHT22;24365;48.446;8.850;2023-11-19T04:22:35;9.70;96.40
38606;DHT22;24365;48.446;8.850;2023-11-19T04:27:36;9.70;96.40
38606;DHT22;24365;48.446;8.850;2023-11-19T04:32:37;9.70;96.70
38606;DHT22;24365;48.446;8.850;2023-11-19T04:37:38;9.80;96.60
38606;DHT22;24365;48.446;8.850;2023-11-19T04:42:39;9.80;96.60
38606;DHT22;24365;48.446;8.850;2023-11-19T04:47:43;9.90;96.70
38606;DHT22;24365;48.446;8.850;2023-11-19T04:52:44;9.80;96.50
38606;DHT22;24365;48.446;8.850;2023-11-19T04:57:46;9.80;96.60
38606;DHT22;24365;48.446;8.850;2023-11-19T05:02:48;9.90;96.70
38606;DHT22;24365;48.446;8.850;2023-11-19T05:07:49;9.90;96.80
38606;DHT22;24365;48.446;8.850;2023-11-19T05:12:50;10.00;96.40
38606;DHT22;24365;48.446;8.850;2023-11-19T05:17:52;10.10;96.40
38606;DHT22;24365;48.446;8.850;2023-11-19T05:22:53;10.10;96.40
38606;DHT22;24365;48.446;8.850;2023-11-19T05:27:54;10.10;96.10
38606;DHT22;24365;48.446;8.850;2023-11-19T05:32:55;10.10;96.30
38606;DHT22;24365;48.446;8.850;2023-11-19T05:37:56;10.20;96.10
38606;DHT22;24365;48.446;8.850;2023-11-19T05:42:57;10.20;96.10
38606;DHT22;24365;48.446;8.850;2023-11-19T05:47:58;10.30;96.00
38606;DHT22;24365;48.446;8.850;2023-11-19T05:53:00;10.30;95.60
38606;DHT22;24365;48.446;8.850;2023-11-19T05:58:02;10.30;95.60
38606;DHT22;24365;48.446;8.850;2023-11-19T06:03:03;10.40;95.50
38606;DHT22;24365;48.446;8.850;2023-11-19T06:08:04;10.40;95.60
38606;DHT22;24365;48.446;8.850;2023-11-19T06:13:07;10.40;95.70
38606;DHT22;24365;48.446;8.850;2023-11-19T06:18:10;10.40;96.00
38606;DHT22;24365;48.446;8.850;2023-11-19T06:23:12;10.40;95.90
38606;DHT22;24365;48.446;8.850;2023-11-19T06:28:13;10.30;96.30
38606;DHT22;24365;48.446;8.850;2023-11-19T06:33:15;10.30;96.40
38606;DHT22;24365;48.446;8.850;2023-11-19T06:38:16;10.30;96.60
38606;DHT22;24365;48.446;8.850;2023-11-19T06:43:16;10.40;96.90
38606;DHT22;24365;48.446;8.850;2023-11-19T06:48:18;10.40;96.90
38606;DHT22;24365;48.446;8.850;2023-11-19T06:53:19;10.50;96.90
38606;DHT22;24365;48.446;8.850;2023-11-19T06:58:20;10.50;96.70
38606;DHT22;24365;48.446;8.850;2023-11-19T07:03:21;10.50;96.40
38606;DHT22;24365;48.446;8.850;2023-11-19T07:08:22;10.50;96.40
38606;DHT22;24365;48.446;8.850;2023-11-19T07:13:22;10.40;96.50
38606;DHT22;24365;48.446;8.850;2023-11-19T07:18:23;10.50;96.50
38606;DHT22;24365;48.446;8.850;2023-11-19T07:23:24;10.50;96.10
38606;DHT22;24365;48.446;8.850;2023-11-19T07:28:27;10.50;96.30
38606;DHT22;24365;48.446;8.850;2023-11-19T07:33:29;10.60;96.40
38606;DHT22;24365;48.446;8.850;2023-11-19T07:38:30;10.60;96.40
38606;DHT22;24365;48.446;8.850;2023-11-19T07:43:31;10.80;96.00
38606;DHT22;24365;48.446;8.850;2023-11-19T07:48:32;10.80;95.50
38606;DHT22;24365;48.446;8.850;2023-11-19T07:53:33;11.00;95.30
38606;DHT22;24365;48.446;8.850;2023-11-19T07:58:34;11.00;95.10
38606;DHT22;24365;48.446;8.850;2023-11-19T08:03:35;11.10;94.20
38606;DHT22;24365;48.446;8.850;2023-11-19T08:08:36;11.10;93.60
38606;DHT22;24365;48.446;8.850;2023-11-19T08:13:39;11.10;93.20
38606;DHT22;24365;48.446;8.850;2023-11-19T08:18:41;11.20;92.60
38606;DHT22;24365;48.446;8.850;2023-11-19T08:23:42;11.30;92.40
38606;DHT22;24365;48.446;8.850;2023-11-19T08:28:43;11.30;92.30
38606;DHT22;24365;48.446;8.850;2023-11-19T08:33:44;11.40;92.10
38606;DHT22;24365;48.446;8.850;2023-11-19T08:38:45;11.40;92.10
38606;DHT22;24365;48.446;8.850;2023-11-19T08:43:46;11.40;92.20
38606;DHT22;24365;48.446;8.850;2023-11-19T08:48:47;11.50;92.10
38606;DHT22;24365;48.446;8.850;2023-11-19T08:53:48;11.60;92.00
38606;DHT22;24365;48.446;8.850;2023-11-19T08:58:49;11.70;92.20
38606;DHT22;24365;48.446;8.850;2023-11-19T09:03:50;11.80;92.00
38606;DHT22;24365;48.446;8.850;2023-11-19T09:08:51;12.00;91.60
38606;DHT22;24365;48.446;8.850;2023-11-19T09:13:52;12.10;90.40
38606;DHT22;24365;48.446;8.850;2023-11-19T09:18:53;12.10;91.00
38606;DHT22;24365;48.446;8.850;2023-11-19T09:23:54;12.30;91.60
38606;DHT22;24365;48.446;8.850;2023-11-19T09:28:55;12.30;90.50
38606;DHT22;24365;48.446;8.850;2023-11-19T09:33:56;12.40;90.60
38606;DHT22;24365;48.446;8.850;2023-11-19T09:38:57;12.50;90.90
38606;DHT22;24365;48.446;8.850;2023-11-19T09:43:59;12.50;89.90
38606;DHT22;24365;48.446;8.850;2023-11-19T09:49:00;12.60;88.00
38606;DHT22;24365;48.446;8.850;2023-11-19T09:54:02;12.70;88.20
38606;DHT22;24365;48.446;8.850;2023-11-19T09:59:03;12.80;86.60
38606;DHT22;24365;48.446;8.850;2023-11-19T10:04:04;12.90;86.20
38606;DHT22;24365;48.446;8.850;2023-11-19T10:09:05;13.00;86.30
38606;DHT22;24365;48.446;8.850;2023-11-19T10:14:06;13.10;86.20
38606;DHT22;24365;48.446;8.850;2023-11-19T10:19:07;13.40;85.50
38606;DHT22;24365;48.446;8.850;2023-11-19T10:24:09;13.60;83.60
38606;DHT22;24365;48.446;8.850;2023-11-19T10:29:12;13.70;81.80
38606;DHT22;24365;48.446;8.850;2023-11-19T10:34:26;13.70;81.00
38606;DHT22;24365;48.446;8.850;2023-11-19T10:39:33;13.60;79.30
38606;DHT22;24365;48.446;8.850;2023-11-19T10:44:48;13.50;79.60
38606;DHT22;24365;48.446;8.850;2023-11-19T10:49:50;13.50;79.30
38606;DHT22;24365;48.446;8.850;2023-11-19T10:54:51;13.60;78.30
38606;DHT22;24365;48.446;8.850;2023-11-19T10:59:55;13.50;77.10
38606;DHT22;24365;48.446;8.850;2023-11-19T11:05:00;13.50;77.80
38606;DHT22;24365;48.446;8.850;2023-11-19T11:10:04;13.50;78.50
38606;DHT22;24365;48.446;8.850;2023-11-19T11:15:06;13.50;77.20
38606;DHT22;24365;48.446;8.850;2023-11-19T11:20:08;13.60;77.00
38606;DHT22;24365;48.446;8.850;2023-11-19T11:25:24;13.50;78.30
38606;DHT22;24365;48.446;8.850;2023-11-19T11:40:42;13.90;78.30
38606;DHT22;24365;48.446;8.850;2023-11-19T11:45:43;14.00;78.20
38606;DHT22;24365;48.446;8.850;2023-11-19T11:50:47;14.10;76.20
38606;DHT22;24365;48.446;8.850;2023-11-19T12:00:51;14.00;74.50
38606;DHT22;24365;48.446;8.850;2023-11-19T12:05:51;14.00;74.20
38606;DHT22;24365;48.446;8.850;2023-11-19T12:10:56;14.00;74.00
38606;DHT22;24365;48.446;8.850;2023-11-19T12:21:01;14.00;73.90
38606;DHT22;24365;48.446;8.850;2023-11-19T12:26:02;14.00;73.10
38606;DHT22;24365;48.446;8.850;2023-11-19T12:31:08;14.00;73.20
38606;DHT22;24365;48.446;8.850;2023-11-19T12:36:11;14.10;73.20
38606;DHT22;24365;48.446;8.850;2023-11-19T12:41:12;14.20;71.40
38606;DHT22;24365;48.446;8.850;2023-11-19T12:46:17;14.30;71.30
38606;DHT22;24365;48.446;8.850;2023-11-19T12:51:19;14.40;69.80
38606;DHT22;24365;48.446;8.850;2023-11-19T12:56:20;14.40;68.90
38606;DHT22;24365;48.446;8.850;2023-11-19T13:01:22;14.40;68.90
38606;DHT22;24365;48.446;8.850;2023-11-19T13:06:24;14.30;68.00
38606;DHT22;24365;48.446;8.850;2023-11-19T13:11:31;14.30;68.70
38606;DHT22;24365;48.446;8.850;2023-11-19T13:16:32;14.20;69.30
38606;DHT22;24365;48.446;8.850;2023-11-19T13:21:35;14.20;69.70
38606;DHT22;24365;48.446;8.850;2023-11-19T13:26:36;14.20;70.10
38606;DHT22;24365;48.446;8.850;2023-11-19T13:31:37;14.30;69.10
38606;DHT22;24365;48.446;8.850;2023-11-19T13:36:38;14.50;67.50
38606;DHT22;24365;48.446;8.850;2023-11-19T13:41:39;14.50;65.70
38606;DHT22;24365;48.446;8.850;2023-11-19T13:46:41;14.50;66.60
38606;DHT22;24365;48.446;8.850;2023-11-19T13:51:42;14.40;64.90
38606;DHT22;24365;48.446;8.850;2023-11-19T13:56:43;14.30;65.40
38606;DHT22;24365;48.446;8.850;2023-11-19T14:01:45;14.20;65.70
38606;DHT22;24365;48.446;8.850;2023-11-19T14:06:46;14.00;66.60
38606;DHT22;24365;48.446;8.850;2023-11-19T14:11:47;14.10;67.20
38606;DHT22;24365;48.446;8.850;2023-11-19T14:16:48;14.00;67.40
38606;DHT22;24365;48.446;8.850;2023-11-19T14:21:49;13.90;69.60
38606;DHT22;24365;48.446;8.850;2023-11-19T14:26:50;13.80;69.70
38606;DHT22;24365;48.446;8.850;2023-11-19T14:31:53;13.80;69.80
38606;DHT22;24365;48.446;8.850;2023-11-19T14:36:54;13.90;69.10
38606;DHT22;24365;48.446;8.850;2023-11-19T14:41:55;13.90;66.70
38606;DHT22;24365;48.446;8.850;2023-11-19T14:46:58;13.90;66.40
38606;DHT22;24365;48.446;8.850;2023-11-19T14:51:59;13.90;66.60
38606;DHT22;24365;48.446;8.850;2023-11-19T14:57:00;13.80;66.50
38606;DHT22;24365;48.446;8.850;2023-11-19T15:02:01;13.70;66.40
38606;DHT22;24365;48.446;8.850;2023-11-19T15:07:03;13.70;64.90
38606;DHT22;24365;48.446;8.850;2023-11-19T15:12:05;13.60;65.50
38606;DHT22;24365;48.446;8.850;2023-11-19T15:17:06;13.50;65.90
38606;DHT22;24365;48.446;8.850;2023-11-19T15:22:08;13.30;67.10
38606;DHT22;24365;48.446;8.850;2023-11-19T15:27:12;13.20;68.10
38606;DHT22;24365;48.446;8.850;2023-11-19T15:32:12;13.00;69.40
38606;DHT22;24365;48.446;8.850;2023-11-19T15:37:13;12.80;70.80
38606;DHT22;24365;48.446;8.850;2023-11-19T15:42:15;12.60;72.70
38606;DHT22;24365;48.446;8.850;2023-11-19T15:47:16;12.30;73.90
38606;DHT22;24365;48.446;8.850;2023-11-19T15:52:17;12.20;74.60
38606;DHT22;24365;48.446;8.850;2023-11-19T15:57:18;12.00;75.50
38606;DHT22;24365;48.446;8.850;2023-11-19T16:02:19;11.80;76.20
38606;DHT22;24365;48.446;8.850;2023-11-19T16:07:20;11.80;76.20
38606;DHT22;24365;48.446;8.850;2023-11-19T16:12:21;11.70;76.70
38606;DHT22;24365;48.446;8.850;2023-11-19T16:17:22;11.70;76.80
38606;DHT22;24365;48.446;8.850;2023-11-19T16:22:25;11.60;75.90
38606;DHT22;24365;48.446;8.850;2023-11-19T16:27:26;11.50;76.60
38606;DHT22;24365;48.446;8.850;2023-11-19T16:32:27;11.40;77.00
38606;DHT22;24365;48.446;8.850;2023-11-19T16:37:28;11.40;77.20
38606;DHT22;24365;48.446;8.850;2023-11-19T16:42:29;11.20;77.90
38606;DHT22;24365;48.446;8.850;2023-11-19T16:47:30;11.10;78.50
38606;DHT22;24365;48.446;8.850;2023-11-19T16:52:31;11.00;78.50
38606;DHT22;24365;48.446;8.850;2023-11-19T16:57:33;10.90;77.70
38606;DHT22;24365;48.446;8.850;2023-11-19T17:02:35;10.80;77.10
38606;DHT22;24365;48.446;8.850;2023-11-19T17:07:37;10.80;77.20
38606;DHT22;24365;48.446;8.850;2023-11-19T17:12:39;10.80;78.40
38606;DHT22;24365;48.446;8.850;2023-11-19T17:17:41;10.70;77.90
38606;DHT22;24365;48.446;8.850;2023-11-19T17:22:42;10.60;78.10
38606;DHT22;24365;48.446;8.850;2023-11-19T17:27:43;10.60;79.20
38606;DHT22;24365;48.446;8.850;2023-11-19T17:32:46;10.50;79.00
38606;DHT22;24365;48.446;8.850;2023-11-19T17:37:48;10.40;79.40
38606;DHT22;24365;48.446;8.850;2023-11-19T17:42:48;10.40;79.50
38606;DHT22;24365;48.446;8.850;2023-11-19T17:47:56;10.30;80.10
38606;DHT22;24365;48.446;8.850;2023-11-19T17:52:57;10.10;79.40
38606;DHT22;24365;48.446;8.850;2023-11-19T17:57:58;10.00;80.90
38606;DHT22;24365;48.446;8.850;2023-11-19T18:02:59;9.90;81.00
38606;DHT22;24365;48.446;8.850;2023-11-19T18:08:00;10.00;80.90
38606;DHT22;24365;48.446;8.850;2023-11-19T18:13:01;10.10;80.80
38606;DHT22;24365;48.446;8.850;2023-11-19T18:18:03;10.10;80.20
38606;DHT22;24365;48.446;8.850;2023-11-19T18:23:04;10.10;80.60
38606;DHT22;24365;48.446;8.850;2023-11-19T18:28:05;10.00;80.70
38606;DHT22;24365;48.446;8.850;2023-11-19T18:33:06;9.80;81.00
38606;DHT22;24365;48.446;8.850;2023-11-19T18:38:07;9.70;82.40
38606;DHT22;24365;48.446;8.850;2023-11-19T18:43:08;9.70;82.30
38606;DHT22;24365;48.446;8.850;2023-11-19T18:48:09;9.70;82.10
38606;DHT22;24365;48.446;8.850;2023-11-19T18:53:10;9.50;82.70
38606;DHT22;24365;48.446;8.850;2023-11-19T18:58:11;9.50;83.20
38606;DHT22;24365;48.446;8.850;2023-11-19T19:03:12;9.40;83.50
38606;DHT22;24365;48.446;8.850;2023-11-19T19:08:15;9.30;83.50
38606;DHT22;24365;48.446;8.850;2023-11-19T19:13:17;9.30;84.30
38606;DHT22;24365;48.446;8.850;2023-11-19T19:18:18;9.20;84.20
38606;DHT22;24365;48.446;8.850;2023-11-19T19:23:19;9.30;85.20
38606;DHT22;24365;48.446;8.850;2023-11-19T19:28:20;9.20;84.10
38606;DHT22;24365;48.446;8.850;2023-11-19T19:33:21;9.10;84.90
38606;DHT22;24365;48.446;8.850;2023-11-19T19:38:22;9.20;82.80
38606;DHT22;24365;48.446;8.850;2023-11-19T19:43:23;9.10;84.00
38606;DHT22;24365;48.446;8.850;2023-11-19T19:48:25;9.20;85.20
38606;DHT22;24365;48.446;8.850;2023-11-19T19:53:26;9.10;85.40
38606;DHT22;24365;48.446;8.850;2023-11-19T19:58:28;9.10;86.20
38606;DHT22;24365;48.446;8.850;2023-11-19T20:03:29;9.10;85.80
38606;DHT22;24365;48.446;8.850;2023-11-19T20:08:31;9.10;86.00
38606;DHT22;24365;48.446;8.850;2023-11-19T20:13:32;9.10;85.60
38606;DHT22;24365;48.446;8.850;2023-11-19T20:18:33;9.10;85.80
38606;DHT22;24365;48.446;8.850;2023-11-19T20:23:34;9.20;85.60
38606;DHT22;24365;48.446;8.850;2023-11-19T20:28:35;9.50;84.60
38606;DHT22;24365;48.446;8.850;2023-11-19T20:33:36;9.70;82.60
38606;DHT22;24365;48.446;8.850;2023-11-19T20:38:38;10.10;80.70
38606;DHT22;24365;48.446;8.850;2023-11-19T20:43:40;10.20;79.70
38606;DHT22;24365;48.446;8.850;2023-11-19T20:48:40;10.40;79.10
38606;DHT22;24365;48.446;8.850;2023-11-19T20:53:42;10.40;78.90
38606;DHT22;24365;48.446;8.850;2023-11-19T20:58:43;10.40;79.20
38606;DHT22;24365;48.446;8.850;2023-11-19T21:03:44;10.40;79.30
38606;DHT22;24365;48.446;8.850;2023-11-19T21:08:45;10.40;78.40
38606;DHT22;24365;48.446;8.850;2023-11-19T21:13:46;10.70;75.40
38606;DHT22;24365;48.446;8.850;2023-11-19T21:18:46;10.70;74.60
38606;DHT22;24365;48.446;8.850;2023-11-19T21:23:47;10.90;72.90
38606;DHT22;24365;48.446;8.850;2023-11-19T21:28:48;11.00;72.70
38606;DHT22;24365;48.446;8.850;2023-11-19T21:33:49;11.00;73.20
38606;DHT22;24365;48.446;8.850;2023-11-19T21:38:50;10.90;73.90
38606;DHT22;24365;48.446;8.850;2023-11-19T21:43:51;10.90;74.60
38606;DHT22;24365;48.446;8.850;2023-11-19T21:48:53;10.90;74.40
38606;DHT22;24365;48.446;8.850;2023-11-19T21:53:54;10.80;75.00
38606;DHT22;24365;48.446;8.850;2023-11-19T21:58:54;10.80;75.80
38606;DHT22;24365;48.446;8.850;2023-11-19T22:03:55;10.80;76.00
38606;DHT22;24365;48.446;8.850;2023-11-19T22:08:56;10.80;75.80
38606;DHT22;24365;48.446;8.850;2023-11-19T22:13:57;10.70;76.50
38606;DHT22;24365;48.446;8.850;2023-11-19T22:18:58;10.80;75.80
38606;DHT22;24365;48.446;8.850;2023-11-19T22:23:59;10.80;74.90
38606;DHT22;24365;48.446;8.850;2023-11-19T22:29:00;10.80;73.60
38606;DHT22;24365;48.446;8.850;2023-11-19T22:34:03;10.80;73.50
38606;DHT22;24365;48.446;8.850;2023-11-19T22:39:04;10.90;72.60
38606;DHT22;24365;48.446;8.850;2023-11-19T22:44:05;10.80;72.00
38606;DHT22;24365;48.446;8.850;2023-11-19T22:49:07;10.90;72.00
38606;DHT22;24365;48.446;8.850;2023-11-19T22:54:08;10.80;71.60
38606;DHT22;24365;48.446;8.850;2023-11-19T22:59:09;10.80;72.00
38606;DHT22;24365;48.446;8.850;2023-11-19T23:04:11;10.80;71.70
38606;DHT22;24365;48.446;8.850;2023-11-19T23:09:11;10.80;71.20
38606;DHT22;24365;48.446;8.850;2023-11-19T23:14:12;10.80;71.60
38606;DHT22;24365;48.446;8.850;2023-11-19T23:19:13;10.80;71.60
38606;DHT22;24365;48.446;8.850;2023-11-19T23:24:16;10.80;72.60
38606;DHT22;24365;48.446;8.850;2023-11-19T23:29:17;10.80;72.30
38606;DHT22;24365;48.446;8.850;2023-11-19T23:34:18;10.70;72.80
38606;DHT22;24365;48.446;8.850;2023-11-19T23:39:19;10.70;74.10
38606;DHT22;24365;48.446;8.850;2023-11-19T23:44:20;10.80;74.50
38606;DHT22;24365;48.446;8.850;2023-11-19T23:49:21;10.70;74.70
38606;DHT22;24365;48.446;8.850;2023-11-19T23:54:22;10.70;74.80
38606;DHT22;24365;48.446;8.850;2023-11-19T23:59:23;10.70;76.00
